Time;durP1;ratioP1;P1;durP2;ratioP2;P2;SDS_P1;SDS_P2;PMS_P1;PMS_P2;Temp;Humidity;BMP_temperature;BMP_pressure;BME280_temperature;BME280_humidity;BME280_pressure;Samples;Min_cycle;Max_cycle;Signal;HPM_P1;HPM_P2
2023/09/08 00:01:27;;;;;;;10.07;7.47;;;21.30;99.90;;;;;;4955102;28;20038;-74
2023/09/08 00:03:53;;;;;;;9.82;7.45;;;21.30;99.90;;;;;;4965846;28;20030;-74
2023/09/08 00:06:18;;;;;;;9.73;7.72;;;21.20;99.90;;;;;;4956982;28;20027;-74
2023/09/08 00:08:44;;;;;;;8.95;7.63;;;21.20;99.90;;;;;;4946231;29;20482;-74
2023/09/08 00:11:09;;;;;;;8.80;6.97;;;21.20;99.90;;;;;;4952527;28;20446;-75
2023/09/08 00:13:35;;;;;;;9.55;5.93;;;21.10;99.90;;;;;;4960937;28;20029;-75
2023/09/08 00:16:01;;;;;;;11.18;8.38;;;21.10;99.90;;;;;;4951033;28;20501;-74
2023/09/08 00:18:26;;;;;;;9.07;8.18;;;21.10;99.90;;;;;;4949002;28;20589;-74
2023/09/08 00:20:52;;;;;;;9.27;6.72;;;21.10;99.90;;;;;;4962404;28;20143;-74
2023/09/08 00:23:17;;;;;;;8.90;7.95;;;21.00;99.90;;;;;;4956777;28;20021;-74
2023/09/08 00:25:43;;;;;;;7.85;7.05;;;21.00;99.90;;;;;;4954640;28;20106;-75
2023/09/08 00:28:09;;;;;;;9.57;7.28;;;21.00;99.90;;;;;;4949319;29;20360;-74
2023/09/08 00:30:34;;;;;;;9.35;6.88;;;20.90;99.90;;;;;;4948848;29;20568;-74
2023/09/08 00:33:00;;;;;;;10.65;7.22;;;20.90;99.90;;;;;;4962765;28;20598;-75
2023/09/08 00:35:26;;;;;;;10.45;7.70;;;20.90;99.90;;;;;;4940586;28;20559;-74
2023/09/08 00:37:51;;;;;;;9.65;7.75;;;20.90;99.90;;;;;;4954690;28;20393;-74
2023/09/08 00:40:17;;;;;;;8.23;7.43;;;20.80;99.90;;;;;;4960338;28;20043;-74
2023/09/08 00:42:43;;;;;;;9.02;8.10;;;20.80;99.90;;;;;;4962083;28;20023;-75
2023/09/08 00:45:09;;;;;;;10.05;8.18;;;20.80;99.90;;;;;;4954306;28;20066;-75
2023/09/08 00:47:35;;;;;;;10.70;9.05;;;20.80;99.90;;;;;;4947762;29;20039;-75
2023/09/08 00:50:04;;;;;;;8.15;7.20;;;20.80;99.90;;;;;;4962222;28;20041;-75
2023/09/08 00:52:32;;;;;;;9.13;8.23;;;20.80;99.90;;;;;;4958795;28;20022;-76
2023/09/08 00:54:58;;;;;;;10.30;9.18;;;20.70;99.90;;;;;;4954285;28;20046;-75
2023/09/08 00:57:24;;;;;;;11.13;8.40;;;20.70;99.90;;;;;;4959437;28;20035;-75
2023/09/08 00:59:50;;;;;;;9.15;8.15;;;20.70;99.90;;;;;;4962355;28;20092;-75
2023/09/08 01:02:16;;;;;;;10.50;7.88;;;20.70;99.90;;;;;;4954917;28;20042;-75
2023/09/08 01:04:42;;;;;;;7.80;6.95;;;20.70;99.90;;;;;;4965228;28;20408;-75
2023/09/08 01:07:09;;;;;;;10.30;7.90;;;20.60;99.90;;;;;;4936984;28;20019;-75
2023/09/08 01:09:36;;;;;;;11.05;9.02;;;20.60;99.90;;;;;;4947199;29;20031;-75
2023/09/08 01:12:05;;;;;;;10.70;8.60;;;20.60;99.90;;;;;;4960774;28;20027;-75
2023/09/08 01:14:31;;;;;;;9.25;8.00;;;20.60;99.90;;;;;;4954564;28;20046;-75
2023/09/08 01:16:56;;;;;;;9.93;8.73;;;20.50;99.90;;;;;;4946875;29;20564;-75
2023/09/08 01:19:22;;;;;;;9.55;8.52;;;20.50;99.90;;;;;;4952069;28;20026;-75
2023/09/08 01:22:23;;;;;;;11.35;8.80;;;20.50;99.90;;;;;;4958403;28;20027;-75
2023/09/08 01:25:13;;;;;;;9.13;7.13;;;20.50;99.90;;;;;;4941563;28;20031;-75
2023/09/08 01:27:50;;;;;;;10.77;9.60;;;20.40;99.90;;;;;;4936841;28;20039;-75
2023/09/08 01:30:17;;;;;;;11.88;8.95;;;20.40;99.90;;;;;;4958525;28;20027;-74
2023/09/08 01:32:44;;;;;;;9.05;7.93;;;20.40;99.90;;;;;;4961655;28;20031;-75
2023/09/08 01:35:11;;;;;;;12.68;8.55;;;20.40;99.90;;;;;;4955644;28;20049;-75
2023/09/08 01:37:40;;;;;;;12.02;9.75;;;20.30;99.90;;;;;;4954208;28;20094;-75
2023/09/08 01:40:07;;;;;;;12.88;8.20;;;20.30;99.90;;;;;;4940696;28;20039;-75
2023/09/08 01:42:32;;;;;;;11.55;9.63;;;20.30;99.90;;;;;;4955624;28;20502;-75
2023/09/08 01:44:58;;;;;;;10.02;8.88;;;20.30;99.90;;;;;;4945377;29;20552;-75
2023/09/08 01:47:24;;;;;;;11.10;9.80;;;20.30;99.90;;;;;;4957642;28;20093;-75
2023/09/08 01:49:49;;;;;;;11.02;8.30;;;20.20;99.90;;;;;;4953952;28;20019;-75
2023/09/08 01:52:15;;;;;;;11.88;9.43;;;20.20;99.90;;;;;;4959177;28;20085;-75
2023/09/08 01:54:41;;;;;;;10.52;9.20;;;20.20;99.90;;;;;;4961957;28;20023;-74
2023/09/08 01:57:06;;;;;;;10.50;9.40;;;20.20;99.90;;;;;;4954876;28;20030;-75
2023/09/08 01:59:32;;;;;;;12.15;9.32;;;20.20;99.90;;;;;;4959188;28;20019;-75
2023/09/08 02:01:58;;;;;;;10.68;8.75;;;20.10;99.90;;;;;;4933925;29;20029;-75
2023/09/08 02:04:23;;;;;;;10.63;9.00;;;20.10;99.90;;;;;;4961412;28;20023;-75
2023/09/08 02:06:49;;;;;;;14.00;9.10;;;20.10;99.90;;;;;;4956857;28;20028;-75
2023/09/08 02:09:15;;;;;;;12.00;9.50;;;20.10;99.90;;;;;;4962951;28;20023;-76
2023/09/08 02:11:42;;;;;;;11.68;9.02;;;20.00;99.90;;;;;;4955104;28;20058;-75
2023/09/08 02:14:08;;;;;;;10.35;8.95;;;20.00;99.90;;;;;;4953596;28;20473;-75
2023/09/08 02:16:34;;;;;;;11.05;8.55;;;20.00;99.90;;;;;;4962160;28;20019;-75
2023/09/08 02:19:00;;;;;;;11.68;9.55;;;20.00;99.90;;;;;;4965185;28;20396;-75
2023/09/08 02:21:25;;;;;;;10.02;8.82;;;20.00;99.90;;;;;;4951131;29;20019;-75
2023/09/08 02:23:51;;;;;;;12.10;9.52;;;19.90;99.90;;;;;;4942651;29;20027;-75
2023/09/08 02:26:16;;;;;;;11.10;8.55;;;19.90;99.90;;;;;;4964147;28;20023;-74
2023/09/08 02:28:42;;;;;;;11.98;9.70;;;19.90;99.90;;;;;;4961125;28;20031;-75
2023/09/08 02:31:08;;;;;;;8.65;7.28;;;19.90;99.90;;;;;;4956555;28;20027;-75
2023/09/08 02:33:34;;;;;;;10.70;8.82;;;19.80;99.90;;;;;;4960735;28;20023;-75
2023/09/08 02:36:06;;;;;;;11.55;8.85;;;19.80;99.90;;;;;;4964282;28;20403;-75
2023/09/08 02:38:34;;;;;;;9.45;7.88;;;19.80;99.90;;;;;;4957644;28;20058;-75
2023/09/08 02:41:00;;;;;;;10.13;9.02;;;19.80;99.90;;;;;;4956870;28;20034;-75
2023/09/08 02:43:27;;;;;;;11.23;9.57;;;19.80;99.90;;;;;;4964299;28;20027;-75
2023/09/08 02:45:52;;;;;;;13.10;8.35;;;19.70;99.90;;;;;;4961971;28;20408;-75
2023/09/08 02:48:18;;;;;;;11.50;9.02;;;19.70;99.90;;;;;;4956314;28;20019;-75
2023/09/08 02:50:44;;;;;;;9.23;8.23;;;19.70;99.90;;;;;;4960689;28;20047;-75
2023/09/08 02:53:09;;;;;;;11.07;9.68;;;19.70;99.90;;;;;;4946839;28;20101;-75
2023/09/08 02:55:35;;;;;;;8.90;7.88;;;19.60;99.90;;;;;;4957726;28;20023;-75
2023/09/08 02:58:01;;;;;;;8.60;7.47;;;19.70;99.90;;;;;;4956619;28;20027;-75
2023/09/08 03:00:27;;;;;;;10.23;9.23;;;19.70;99.90;;;;;;4963801;28;20398;-75
2023/09/08 03:02:52;;;;;;;10.18;8.60;;;19.60;99.90;;;;;;4961047;28;20026;-75
2023/09/08 03:05:18;;;;;;;10.07;9.00;;;19.70;99.90;;;;;;4963936;28;20462;-75
2023/09/08 03:07:47;;;;;;;10.45;9.32;;;19.60;99.90;;;;;;4959519;28;20379;-75
2023/09/08 03:10:12;;;;;;;11.32;10.13;;;19.60;99.90;;;;;;4938639;28;20071;-75
2023/09/08 03:12:38;;;;;;;10.63;9.52;;;19.60;99.90;;;;;;4955951;28;20051;-75
2023/09/08 03:15:04;;;;;;;13.75;10.45;;;19.60;99.90;;;;;;4949082;29;20565;-75
2023/09/08 03:17:30;;;;;;;13.65;9.38;;;19.60;99.90;;;;;;4963305;28;20037;-75
2023/09/08 03:19:55;;;;;;;10.32;8.18;;;19.50;99.90;;;;;;4958190;28;20023;-76
2023/09/08 03:22:21;;;;;;;11.23;9.52;;;19.50;99.90;;;;;;4948364;29;20174;-75
2023/09/08 03:24:47;;;;;;;10.18;9.00;;;19.50;99.90;;;;;;4963736;28;20026;-75
2023/09/08 03:27:12;;;;;;;11.73;9.48;;;19.50;99.90;;;;;;4961572;28;20121;-75
2023/09/08 03:29:38;;;;;;;12.40;9.65;;;19.50;99.90;;;;;;4938411;28;20507;-75
2023/09/08 03:32:04;;;;;;;11.93;10.20;;;19.40;99.90;;;;;;4959347;28;20215;-75
2023/09/08 03:34:30;;;;;;;12.18;9.63;;;19.40;99.90;;;;;;4963278;28;20030;-75
2023/09/08 03:36:55;;;;;;;11.73;9.63;;;19.40;99.90;;;;;;4957148;28;20394;-75
2023/09/08 03:39:21;;;;;;;11.52;9.15;;;19.40;99.90;;;;;;4955468;28;20513;-74
2023/09/08 03:41:47;;;;;;;11.82;10.13;;;19.40;99.90;;;;;;4941841;28;20088;-75
2023/09/08 03:44:12;;;;;;;12.05;10.10;;;19.40;99.90;;;;;;4957846;28;20577;-75
2023/09/08 03:46:38;;;;;;;11.23;9.10;;;19.40;99.90;;;;;;4962693;28;20557;-75
2023/09/08 03:49:07;;;;;;;11.57;9.85;;;19.40;99.90;;;;;;4959226;28;20034;-75
2023/09/08 03:51:33;;;;;;;11.23;9.25;;;19.40;99.90;;;;;;4954903;28;20038;-75
2023/09/08 03:53:58;;;;;;;11.00;9.73;;;19.30;99.90;;;;;;4960965;28;20190;-74
2023/09/08 03:56:24;;;;;;;10.90;9.52;;;19.30;99.90;;;;;;4962604;28;20102;-75
2023/09/08 03:58:50;;;;;;;11.05;9.43;;;19.30;99.90;;;;;;4955580;28;20481;-75
2023/09/08 04:01:15;;;;;;;15.82;10.75;;;19.40;99.90;;;;;;4956477;28;20031;-75
2023/09/08 04:03:41;;;;;;;11.60;9.93;;;19.30;99.90;;;;;;4963927;28;20101;-75
2023/09/08 04:06:09;;;;;;;12.50;10.30;;;19.30;99.90;;;;;;4958551;28;20027;-76
2023/09/08 04:08:34;;;;;;;14.25;11.32;;;19.30;99.90;;;;;;4962999;28;20323;-75
2023/09/08 04:11:00;;;;;;;14.20;10.52;;;19.30;99.90;;;;;;4952748;28;20027;-75
2023/09/08 04:13:26;;;;;;;10.77;9.68;;;19.30;99.90;;;;;;4959142;28;20027;-75
2023/09/08 04:15:51;;;;;;;12.15;10.30;;;19.30;99.90;;;;;;4954198;28;20516;-75
2023/09/08 04:18:17;;;;;;;10.60;9.50;;;19.20;99.90;;;;;;4959957;28;20031;-75
2023/09/08 04:20:43;;;;;;;14.00;11.15;;;19.30;99.90;;;;;;4962177;28;20130;-75
2023/09/08 04:23:08;;;;;;;13.10;10.27;;;19.20;99.90;;;;;;4949020;29;20775;-75
2023/09/08 04:25:36;;;;;;;11.48;10.02;;;19.20;99.90;;;;;;4960891;28;20066;-75
2023/09/08 04:28:02;;;;;;;13.82;11.55;;;19.20;99.90;;;;;;4937392;28;20437;-75
2023/09/08 04:30:27;;;;;;;11.63;10.40;;;19.20;99.90;;;;;;4957527;28;20059;-75
2023/09/08 04:32:53;;;;;;;13.88;10.25;;;19.20;99.90;;;;;;4962492;28;20027;-75
2023/09/08 04:35:19;;;;;;;12.38;10.80;;;19.20;99.90;;;;;;4957292;28;20037;-76
2023/09/08 04:37:44;;;;;;;12.98;10.98;;;19.20;99.90;;;;;;4954228;28;20031;-74
2023/09/08 04:40:10;;;;;;;13.07;10.35;;;19.20;99.90;;;;;;4961439;28;20123;-75
2023/09/08 04:42:36;;;;;;;12.95;11.50;;;19.20;99.90;;;;;;4960950;28;20033;-75
2023/09/08 04:45:02;;;;;;;11.73;10.25;;;19.20;99.90;;;;;;4949718;28;20171;-75
2023/09/08 04:47:27;;;;;;;16.92;10.32;;;19.20;99.90;;;;;;4958676;28;20042;-75
2023/09/08 04:49:53;;;;;;;13.32;11.10;;;19.10;99.90;;;;;;4954484;28;20046;-76
2023/09/08 04:52:18;;;;;;;13.48;12.07;;;19.20;99.90;;;;;;4942035;29;20605;-74
2023/09/08 04:54:44;;;;;;;14.48;10.52;;;19.10;99.90;;;;;;4944936;28;20026;-75
2023/09/08 04:57:10;;;;;;;13.30;11.90;;;19.10;99.90;;;;;;4954614;28;20030;-75
2023/09/08 04:59:36;;;;;;;13.55;11.48;;;19.10;99.90;;;;;;4955741;28;20031;-75
2023/09/08 05:02:02;;;;;;;13.75;11.02;;;19.10;99.90;;;;;;4944361;29;20498;-75
2023/09/08 05:04:28;;;;;;;11.95;10.45;;;19.10;99.90;;;;;;4959045;28;20023;-75
2023/09/08 05:06:54;;;;;;;13.32;11.82;;;19.10;99.90;;;;;;4953773;28;20027;-75
2023/09/08 05:09:20;;;;;;;12.90;11.43;;;19.10;99.90;;;;;;4959775;28;20039;-74
2023/09/08 05:11:45;;;;;;;14.85;10.77;;;19.10;99.90;;;;;;4952066;28;20102;-75
2023/09/08 05:14:11;;;;;;;15.32;10.77;;;19.10;99.90;;;;;;4951517;28;20452;-75
2023/09/08 05:16:39;;;;;;;13.07;10.30;;;19.10;99.90;;;;;;4958848;28;20061;-75
2023/09/08 05:19:05;;;;;;;15.52;10.65;;;19.10;99.90;;;;;;4962294;28;20037;-75
2023/09/08 05:21:34;;;;;;;14.20;11.30;;;19.00;99.90;;;;;;4937665;28;20019;-75
2023/09/08 05:24:00;;;;;;;13.70;10.93;;;19.10;99.90;;;;;;4954619;28;20050;-75
2023/09/08 05:26:25;;;;;;;12.93;10.75;;;19.10;99.90;;;;;;4961456;28;20482;-75
2023/09/08 05:28:51;;;;;;;11.25;10.05;;;19.10;99.90;;;;;;4959703;28;20022;-75
2023/09/08 05:31:17;;;;;;;10.73;9.63;;;19.10;99.90;;;;;;4953747;28;20022;-75
2023/09/08 05:33:42;;;;;;;14.63;11.57;;;19.10;99.90;;;;;;4944727;28;20500;-75
2023/09/08 05:36:08;;;;;;;14.43;11.32;;;19.10;99.90;;;;;;4965403;28;20603;-75
2023/09/08 05:38:34;;;;;;;14.32;10.43;;;19.10;99.90;;;;;;4959024;28;20434;-75
2023/09/08 05:40:59;;;;;;;12.90;10.90;;;19.10;99.90;;;;;;4958489;28;20295;-75
2023/09/08 05:43:25;;;;;;;15.32;12.48;;;19.10;99.90;;;;;;4947794;29;20057;-75
2023/09/08 05:45:51;;;;;;;13.10;11.00;;;19.10;99.90;;;;;;4952766;28;20038;-75
2023/09/08 05:48:17;;;;;;;15.30;11.65;;;19.10;99.90;;;;;;4963410;28;20377;-75
2023/09/08 05:50:42;;;;;;;15.10;12.48;;;19.10;99.90;;;;;;4962584;28;20073;-75
2023/09/08 05:53:08;;;;;;;16.13;12.35;;;19.00;99.90;;;;;;4960380;28;20023;-74
2023/09/08 05:55:34;;;;;;;16.73;12.93;;;19.10;99.90;;;;;;4958600;28;20478;-75
2023/09/08 05:57:59;;;;;;;13.55;11.38;;;19.10;99.90;;;;;;4939984;29;20568;-75
2023/09/08 06:00:26;;;;;;;16.27;11.55;;;19.10;99.90;;;;;;4961163;28;20027;-75
2023/09/08 06:02:51;;;;;;;14.48;12.20;;;19.20;99.90;;;;;;4951443;29;20023;-76
2023/09/08 06:05:17;;;;;;;13.43;11.55;;;19.10;99.90;;;;;;4955918;28;20109;-75
2023/09/08 06:07:43;;;;;;;17.33;12.90;;;19.20;99.90;;;;;;4942573;29;20109;-75
2023/09/08 06:10:09;;;;;;;16.15;11.70;;;19.20;99.90;;;;;;4936138;28;20481;-75
2023/09/08 06:12:35;;;;;;;15.82;12.73;;;19.30;99.90;;;;;;4953411;28;20545;-76
2023/09/08 06:15:03;;;;;;;11.75;10.32;;;19.30;99.90;;;;;;4934319;29;20122;-75
2023/09/08 06:17:28;;;;;;;16.52;12.32;;;19.30;99.90;;;;;;4962551;28;20058;-75
2023/09/08 06:19:54;;;;;;;14.55;12.15;;;19.30;99.90;;;;;;4951838;28;20545;-75
2023/09/08 06:22:20;;;;;;;16.17;12.55;;;19.30;99.90;;;;;;4952422;28;20023;-75
2023/09/08 06:24:45;;;;;;;14.32;11.93;;;19.40;99.90;;;;;;4944216;28;20477;-75
2023/09/08 06:27:12;;;;;;;15.15;12.07;;;19.40;99.90;;;;;;4958451;28;20477;-75
2023/09/08 06:29:39;;;;;;;14.73;13.07;;;19.40;99.90;;;;;;4964615;28;20042;-75
2023/09/08 06:32:06;;;;;;;17.63;12.68;;;19.50;99.90;;;;;;4951514;28;20098;-75
2023/09/08 06:34:33;;;;;;;16.23;13.13;;;19.50;99.90;;;;;;4964638;28;20031;-75
2023/09/08 06:36:59;;;;;;;12.73;11.23;;;19.60;99.90;;;;;;4958376;28;20706;-75
2023/09/08 06:39:26;;;;;;;14.27;12.70;;;19.60;99.90;;;;;;4956608;28;20079;-74
2023/09/08 06:41:52;;;;;;;15.00;12.02;;;19.60;99.90;;;;;;4963463;28;20039;-75
2023/09/08 06:44:19;;;;;;;15.98;12.05;;;19.60;99.90;;;;;;4961087;28;20131;-75
2023/09/08 06:46:44;;;;;;;13.63;11.38;;;19.70;99.90;;;;;;4952625;28;20473;-75
2023/09/08 06:49:10;;;;;;;16.67;12.43;;;19.70;99.90;;;;;;4959779;28;20030;-75
2023/09/08 06:51:36;;;;;;;11.57;10.38;;;19.80;99.90;;;;;;4955729;28;20034;-75
2023/09/08 06:54:03;;;;;;;14.65;12.82;;;19.80;99.90;;;;;;4943772;29;20023;-75
2023/09/08 06:56:29;;;;;;;13.25;10.60;;;19.90;99.90;;;;;;4955730;28;20525;-75
2023/09/08 06:58:57;;;;;;;13.88;11.85;;;19.90;99.90;;;;;;4950380;28;20039;-76
2023/09/08 07:01:23;;;;;;;13.43;11.15;;;20.00;99.90;;;;;;4931837;29;20028;-76
2023/09/08 07:03:49;;;;;;;16.23;11.25;;;20.00;99.90;;;;;;4951659;28;20041;-76
2023/09/08 07:06:15;;;;;;;13.80;10.55;;;20.00;99.90;;;;;;4960831;28;20030;-75
2023/09/08 07:08:41;;;;;;;13.93;11.55;;;20.10;99.90;;;;;;4955782;28;20786;-74
2023/09/08 07:11:07;;;;;;;15.65;11.68;;;20.10;99.90;;;;;;4965789;28;20023;-75
2023/09/08 07:13:33;;;;;;;13.95;10.43;;;20.20;99.90;;;;;;4940127;29;20410;-75
2023/09/08 07:15:58;;;;;;;17.77;11.18;;;20.10;99.90;;;;;;4948121;28;20061;-76
2023/09/08 07:18:24;;;;;;;12.82;9.93;;;20.20;99.90;;;;;;4948919;29;20062;-76
2023/09/08 07:20:50;;;;;;;12.43;11.13;;;20.30;99.90;;;;;;4945449;28;20050;-76
2023/09/08 07:23:19;;;;;;;17.08;11.57;;;20.30;99.90;;;;;;4938822;28;20030;-76
2023/09/08 07:25:49;;;;;;;14.02;10.35;;;20.40;99.90;;;;;;4955098;28;20114;-76
2023/09/08 07:28:15;;;;;;;12.23;10.68;;;20.40;99.90;;;;;;4942625;28;20058;-76
2023/09/08 07:30:41;;;;;;;13.43;11.07;;;20.50;99.90;;;;;;4957079;28;20094;-76
2023/09/08 07:33:06;;;;;;;13.20;10.93;;;20.50;99.90;;;;;;4963049;28;20023;-76
2023/09/08 07:35:32;;;;;;;14.30;10.63;;;20.60;99.90;;;;;;4959814;28;20058;-76
2023/09/08 07:37:58;;;;;;;15.10;10.90;;;20.60;99.90;;;;;;4950810;28;20114;-76
2023/09/08 07:40:24;;;;;;;12.40;10.75;;;20.70;99.90;;;;;;4942584;28;20130;-76
2023/09/08 07:42:50;;;;;;;11.88;9.93;;;20.80;99.90;;;;;;4962597;28;20086;-76
2023/09/08 07:45:15;;;;;;;16.23;11.65;;;20.80;99.90;;;;;;4956048;28;20022;-77
2023/09/08 07:47:43;;;;;;;12.95;10.68;;;20.90;99.90;;;;;;4955171;28;20105;-76
2023/09/08 07:50:35;;;;;;;11.82;10.15;;;20.90;99.90;;;;;;4963181;28;20058;-76
2023/09/08 07:53:01;;;;;;;12.02;9.50;;;21.10;99.90;;;;;;4945678;28;20632;-76
2023/09/08 07:55:29;;;;;;;11.07;9.10;;;21.10;99.90;;;;;;4960584;28;20119;-76
2023/09/08 07:57:57;;;;;;;12.07;10.73;;;21.20;99.90;;;;;;4961346;28;20031;-76
2023/09/08 08:00:23;;;;;;;12.68;9.15;;;21.20;99.90;;;;;;4967380;28;20023;-77
2023/09/08 08:02:53;;;;;;;13.35;9.98;;;21.30;99.90;;;;;;4958309;28;20389;-77
2023/09/08 08:05:19;;;;;;;12.45;9.85;;;21.40;99.90;;;;;;4960804;28;20015;-77
2023/09/08 08:07:44;;;;;;;11.85;10.13;;;21.50;99.90;;;;;;4958522;28;20049;-76
2023/09/08 08:10:11;;;;;;;12.95;9.50;;;21.50;99.90;;;;;;4955013;28;20414;-76
2023/09/08 08:12:37;;;;;;;12.88;11.05;;;21.60;99.90;;;;;;4954766;28;20022;-76
2023/09/08 08:15:07;;;;;;;13.52;10.20;;;21.70;99.90;;;;;;4959121;28;20024;-76
2023/09/08 08:17:33;;;;;;;10.45;9.32;;;21.70;99.90;;;;;;4961968;28;20058;-77
2023/09/08 08:19:59;;;;;;;11.13;10.00;;;21.80;99.90;;;;;;4957494;28;20394;-76
2023/09/08 08:22:27;;;;;;;12.65;10.25;;;21.90;99.90;;;;;;4953933;28;20371;-77
2023/09/08 08:24:53;;;;;;;12.20;8.98;;;22.00;99.90;;;;;;4956133;28;20018;-77
2023/09/08 08:27:18;;;;;;;9.43;8.48;;;22.00;99.90;;;;;;4955024;28;20051;-76
2023/09/08 08:29:44;;;;;;;14.50;9.45;;;22.10;99.90;;;;;;4962604;28;20043;-76
2023/09/08 08:32:12;;;;;;;14.57;9.50;;;22.20;99.90;;;;;;4959050;28;20081;-76
2023/09/08 08:34:37;;;;;;;13.52;9.02;;;22.30;99.90;;;;;;4953136;28;20027;-76
2023/09/08 08:37:03;;;;;;;10.43;8.63;;;22.30;99.90;;;;;;4957566;28;20102;-77
2023/09/08 08:39:29;;;;;;;13.43;9.02;;;22.40;99.90;;;;;;4951746;28;20071;-77
2023/09/08 08:41:54;;;;;;;12.10;9.65;;;22.40;99.90;;;;;;4954724;28;20119;-77
2023/09/08 08:44:21;;;;;;;9.23;8.18;;;22.50;99.90;;;;;;4953801;28;20110;-77
2023/09/08 08:46:47;;;;;;;9.73;8.07;;;22.60;99.90;;;;;;4938034;28;20070;-76
2023/09/08 08:49:15;;;;;;;10.25;8.07;;;22.70;99.90;;;;;;4956985;28;20030;-76
2023/09/08 08:51:45;;;;;;;11.20;8.70;;;22.80;99.90;;;;;;4961997;28;20038;-76
2023/09/08 08:54:13;;;;;;;13.27;8.60;;;22.80;99.90;;;;;;4958389;28;20019;-76
2023/09/08 08:56:39;;;;;;;12.25;9.45;;;22.90;99.90;;;;;;4949031;28;20027;-77
2023/09/08 08:59:06;;;;;;;10.40;8.93;;;23.00;99.90;;;;;;4963314;28;20126;-77
2023/09/08 09:01:32;;;;;;;10.23;8.82;;;23.10;99.90;;;;;;4953437;28;20110;-77
2023/09/08 09:03:58;;;;;;;11.63;8.98;;;23.20;99.90;;;;;;4946820;28;20031;-77
2023/09/08 09:06:24;;;;;;;11.00;8.75;;;23.20;99.90;;;;;;4941067;28;20826;-77
2023/09/08 09:08:49;;;;;;;10.68;8.50;;;23.30;99.90;;;;;;4965222;28;20027;-77
2023/09/08 09:11:15;;;;;;;10.63;9.07;;;23.40;99.90;;;;;;4955365;28;20034;-77
2023/09/08 09:13:41;;;;;;;9.98;7.53;;;23.50;99.90;;;;;;4946971;28;20027;-76
2023/09/08 09:16:10;;;;;;;13.27;8.93;;;23.60;99.90;;;;;;4958407;28;20022;-77
2023/09/08 09:18:57;;;;;;;11.45;10.18;;;23.70;99.90;;;;;;4961022;28;20050;-76
2023/09/08 09:21:23;;;;;;;14.18;10.70;;;23.80;99.90;;;;;;4957972;28;20033;-80
2023/09/08 09:23:49;;;;;;;14.50;10.07;;;23.80;99.90;;;;;;4959691;28;20038;-77
2023/09/08 09:26:26;;;;;;;11.35;8.63;;;23.90;99.90;;;;;;4965924;28;20569;-77
2023/09/08 09:28:53;;;;;;;10.65;9.55;;;24.00;99.90;;;;;;4963354;28;20060;-77
2023/09/08 09:31:24;;;;;;;14.13;10.68;;;24.10;99.90;;;;;;4950898;29;20604;-77
2023/09/08 09:34:00;;;;;;;;;;;24.20;99.90;;;;;;4962403;28;20477;-77
2023/09/08 09:36:26;;;;;;;13.43;8.68;;;24.30;99.90;;;;;;4957897;28;19910;-77
2023/09/08 09:38:52;;;;;;;11.10;8.60;;;24.40;99.90;;;;;;4950222;29;20049;-77
2023/09/08 09:41:17;;;;;;;11.73;10.07;;;24.50;99.90;;;;;;4965557;28;20015;-77
2023/09/08 09:43:44;;;;;;;12.05;9.10;;;24.60;99.90;;;;;;4959286;28;20042;-78
2023/09/08 09:46:10;;;;;;;11.70;10.50;;;24.70;99.90;;;;;;4957661;28;20035;-77
2023/09/08 09:48:35;;;;;;;13.50;9.88;;;24.80;99.90;;;;;;4965001;28;20486;-76
2023/09/08 09:51:19;;;;;;;10.35;9.23;;;24.80;99.90;;;;;;4946335;28;20031;-77
2023/09/08 09:53:45;;;;;;;11.00;9.82;;;24.90;99.90;;;;;;4944665;28;20065;-76
2023/09/08 09:56:12;;;;;;;9.90;8.80;;;25.00;99.90;;;;;;4959056;28;20633;-77
2023/09/08 09:58:38;;;;;;;11.75;9.43;;;25.10;99.90;;;;;;4955685;28;20031;-77
2023/09/08 10:01:04;;;;;;;15.82;10.30;;;25.10;99.90;;;;;;4943353;29;20022;-77
2023/09/08 10:03:30;;;;;;;12.55;11.25;;;25.20;99.90;;;;;;4961613;28;20027;-77
2023/09/08 10:05:56;;;;;;;16.38;10.95;;;25.30;99.90;;;;;;4960259;28;20109;-77
2023/09/08 10:08:23;;;;;;;11.63;9.80;;;25.40;99.90;;;;;;4956883;28;20037;-77
2023/09/08 10:10:50;;;;;;;10.30;8.15;;;25.50;99.90;;;;;;4967066;28;20123;-77
2023/09/08 10:13:21;;;;;;;11.32;8.07;;;25.60;99.90;;;;;;4961642;28;20031;-77
2023/09/08 10:15:49;;;;;;;10.98;9.00;;;25.70;99.90;;;;;;4965363;28;20126;-77
2023/09/08 10:18:19;;;;;;;8.82;7.18;;;25.80;99.90;;;;;;4958189;28;20097;-77
2023/09/08 10:20:46;;;;;;;9.48;7.82;;;25.90;99.90;;;;;;4956822;28;20470;-77
2023/09/08 10:23:36;;;;;;;12.68;8.98;;;26.00;99.90;;;;;;4963391;28;20034;-76
2023/09/08 10:26:05;;;;;;;10.43;7.03;;;26.10;99.90;;;;;;4965124;28;20106;-77
2023/09/08 10:28:33;;;;;;;11.82;7.65;;;26.20;99.90;;;;;;4959356;28;20501;-77
2023/09/08 10:30:59;;;;;;;13.10;7.93;;;26.30;99.90;;;;;;4956875;28;20435;-77
2023/09/08 10:33:26;;;;;;;10.57;6.65;;;26.40;99.90;;;;;;4963077;28;20015;-76
2023/09/08 10:35:52;;;;;;;7.97;5.53;;;26.50;99.90;;;;;;4963911;28;20035;-77
2023/09/08 10:38:31;;;;;;;8.15;6.30;;;26.60;99.90;;;;;;4956069;28;20019;-77
2023/09/08 10:41:15;;;;;;;8.40;5.93;;;26.70;99.90;;;;;;4937217;29;20031;-77
2023/09/08 10:43:43;;;;;;;8.25;5.93;;;26.80;99.90;;;;;;4926607;29;20038;-76
2023/09/08 10:46:09;;;;;;;10.13;6.57;;;26.90;99.90;;;;;;4937901;29;20028;-77
2023/09/08 10:48:44;;;;;;;7.53;5.63;;;26.90;99.90;;;;;;4944563;29;20032;-77
2023/09/08 10:51:14;;;;;;;7.70;6.72;;;27.00;99.90;;;;;;4944075;28;20031;-77
2023/09/08 10:53:40;;;;;;;6.40;5.70;;;27.00;99.90;;;;;;4936752;29;20517;-77
2023/09/08 10:56:06;;;;;;;8.85;6.07;;;27.10;99.90;;;;;;4939508;29;20050;-77
2023/09/08 10:58:38;;;;;;;10.05;6.85;;;27.20;99.90;;;;;;4944641;29;20032;-77
2023/09/08 11:01:05;;;;;;;9.18;6.03;;;27.30;99.90;;;;;;4941413;29;20561;-77
2023/09/08 11:03:49;;;;;;;10.00;5.53;;;27.30;99.90;;;;;;4933971;29;20024;-77
2023/09/08 11:06:21;;;;;;;8.77;5.65;;;27.40;99.90;;;;;;4924792;29;20023;-77
2023/09/08 11:08:48;;;;;;;7.38;5.03;;;27.50;99.90;;;;;;4932798;29;20098;-76
2023/09/08 11:11:16;;;;;;;7.85;5.57;;;27.60;99.90;;;;;;4933031;29;20027;-77
2023/09/08 11:13:45;;;;;;;9.40;5.55;;;27.70;99.90;;;;;;4937776;29;20115;-77
2023/09/08 11:16:11;;;;;;;8.68;5.68;;;27.70;99.90;;;;;;4944588;29;20066;-77
2023/09/08 11:18:37;;;;;;;7.30;5.95;;;27.80;99.90;;;;;;4941489;29;20050;-77
2023/09/08 11:21:07;;;;;;;8.52;5.57;;;27.90;99.90;;;;;;4936735;29;20548;-77
2023/09/08 11:23:33;;;;;;;8.02;5.28;;;28.00;99.90;;;;;;4940299;29;20517;-77
2023/09/08 11:26:00;;;;;;;7.93;5.30;;;28.10;99.90;;;;;;4927238;29;20118;-77
2023/09/08 11:28:28;;;;;;;8.35;4.90;;;28.20;99.90;;;;;;4938281;29;20035;-76
2023/09/08 11:30:55;;;;;;;7.20;5.10;;;28.20;99.90;;;;;;4928721;29;20028;-77
2023/09/08 11:33:25;;;;;;;6.28;4.43;;;28.30;99.90;;;;;;4936487;29;20037;-77
2023/09/08 11:35:54;;;;;;;9.65;5.28;;;28.40;99.90;;;;;;4929440;29;20449;-77
2023/09/08 11:38:27;;;;;;;6.43;4.80;;;28.40;99.90;;;;;;4943649;29;20035;-77
2023/09/08 11:40:58;;;;;;;6.78;4.50;;;28.50;99.90;;;;;;4960103;28;20477;-77
2023/09/08 11:43:24;;;;;;;21.33;5.22;;;28.60;99.90;;;;;;4955130;28;20019;-77
2023/09/08 11:45:50;;;;;;;5.88;4.68;;;28.60;99.90;;;;;;4964729;28;20042;-77
2023/09/08 11:48:16;;;;;;;10.45;4.72;;;28.70;99.90;;;;;;4961445;28;20025;-77
2023/09/08 11:50:43;;;;;;;7.65;4.47;;;28.80;99.90;;;;;;4957126;28;20031;-76
2023/09/08 11:53:09;;;;;;;10.38;5.15;;;28.80;99.90;;;;;;4965131;28;20039;-77
2023/09/08 11:55:39;;;;;;;6.43;5.72;;;28.90;99.80;;;;;;4961662;28;20027;-77
2023/09/08 11:58:05;;;;;;;7.00;5.55;;;29.00;99.70;;;;;;4961248;28;20034;-77
2023/09/08 12:00:32;;;;;;;7.03;5.78;;;29.00;99.90;;;;;;4941787;28;20018;-77
2023/09/08 12:03:14;;;;;;;8.15;5.20;;;29.10;99.80;;;;;;4963913;28;20111;-77
2023/09/08 12:05:42;;;;;;;6.82;4.63;;;29.10;99.90;;;;;;4942854;28;20027;-77
2023/09/08 12:08:07;;;;;;;8.82;5.55;;;29.20;99.90;;;;;;4963869;28;20058;-77
2023/09/08 12:10:40;;;;;;;8.98;5.45;;;29.20;99.80;;;;;;4952790;28;20481;-76
2023/09/08 12:13:07;;;;;;;8.45;5.65;;;29.30;99.30;;;;;;4956629;28;20063;-76
2023/09/08 12:15:37;;;;;;;9.48;5.70;;;29.30;99.20;;;;;;4963745;28;20027;-77
2023/09/08 12:18:16;;;;;;;7.70;5.20;;;29.40;99.30;;;;;;4942540;28;20031;-76
2023/09/08 12:20:44;;;;;;;7.37;5.40;;;29.40;99.40;;;;;;4954974;28;20024;-77
2023/09/08 12:23:20;;;;;;;11.80;5.07;;;29.50;99.10;;;;;;4961926;28;20267;-77
2023/09/08 12:25:50;;;;;;;6.75;5.20;;;29.50;98.90;;;;;;4961397;28;20061;-76
2023/09/08 12:28:18;;;;;;;11.70;6.22;;;29.60;99.20;;;;;;4942375;28;20023;-77
2023/09/08 12:30:44;;;;;;;7.57;6.00;;;29.70;99.30;;;;;;4955957;28;20438;-77
2023/09/08 12:33:11;;;;;;;9.60;5.32;;;29.70;98.70;;;;;;4962309;28;20031;-77
2023/09/08 12:35:37;;;;;;;8.88;5.80;;;29.80;98.70;;;;;;4959748;28;20038;-77